Terminal Aerodrome Forecast
Issued by NWS Cleveland, OH

Home | Current Version | Previous Version | Graphics & Text | Print | Product List | Glossary On
Versions: 1 2 3 4 5 6 7 8 9 10 11 12 13 14 15 16 17
324
FTUS41 KCLE 040520
TAFTOL
TAF
KTOL 040520Z 0406/0506 26004KT P6SM OVC035
     FM041000 VRB03KT P6SM SCT040 OVC150
     FM042000 12004KT 6SM -RASN BR SCT025 OVC040
     FM042200 13005KT 4SM -SN BR OVC025=

USA.gov is the U.S. government's official web portal to all federal, state and local government web resources and services.